Impacts TAF Board
For situational awareness. Not to be used for flight planning purposes.
IDs:

KORD - Chicago/O'Hare Intl, IL, US

Issued at 2340 UTC 24 Apr 2019
Updated at 2349 UTC 24 Apr 2019
Potential Impact None Slight Moderate High
Time<<25/12Z 25/13Z 25/14Z 25/15Z 25/16Z 25/17Z 25/18Z 25/19Z 25/20Z 25/21Z 25/22Z 25/23Z 26/00Z>>
Type PRVL PRVL PRVL PRVL PRVL PRVL PRVL PRVL PRVL PRVL PRVL PRVL PRVL
VIS >6 >6 >6 >6 >6 >6 >6 >6 >6 >6 >6 >6 >6
CIG -- -- -- -- -- -- -- -- -- -- 40 40 25
Cover SCT SCT SCT SCT SCT SCT SCT SCT SCT SCT BKN BKN OVC
FltCat VFR VFR VFR VFR VFR VFR VFR VFR VFR VFR VFR VFR MVFR
WX -- -- -- -- -- -- -- -- -- -- -- -- -SHRA
WDir 220 220 220 220 220 220 220 220 220 220 20 20 10
WSpd 4 4 4 4 4 4 4 4 4 4 8 8 13
WGst -- -- -- -- -- -- -- -- -- -- -- -- --
Raw TAF
KORD 242340Z 2500/2606 13005KT P6SM OVC060
  FM251200 22004KT P6SM SCT030
  FM252200 02008KT P6SM BKN040
  FM260000 01013KT P6SM -SHRA OVC025


METAR Board
Radar Display
Forecast Discussion
For situational awareness. Not to be used for flight planning purposes.